Aerbrava en el facebook Aerbrava en el twitter Google+ Instagram Aerbrava en el youtube tumblr flikr pinterest
Aerbrava in English aerbrava en Español
Escola de Pilots
Telèfon 972234126 972 23 41 26
 
Aerbrava in English aerbrava en Español
Aerbrava - meteorologia

Informació meteorològica aeronàutica

 

En aquest apartat apareix la informació meteorològica aeronàutica que és utilitzada a les pràctiques dels alumnes de l’Escola de Pilots del nostre centre durant la seva formació, pel que pot no ser actual i s’hauria d’utilitzar pel seu propi compte i risc. AERBRAVA no es fa responsable del seu ús.

 

TEMPS ACTUAL

Satèl·lit Meteorològic

sat24.com

Servei Meteorològic de Catalunya

 

LEGE 262230Z 00000KT CAVOK 07/06 Q1019
LEGE 262200Z 03001KT CAVOK 07/06 Q1019
LEGE 262130Z 00000KT CAVOK 07/06 Q1019
LEGE 262100Z VRB01KT CAVOK 08/07 Q1018
TAF LEGE 261700Z 2618/2718 18012KT 9999 FEW040 TX19/2713Z TN05/2707Z
BECMG 2618/2620 VRB02KT
PROB40
TEMPO 2700/2709 2000 BR BKN009
PROB30
TEMPO 2700/2708 0300 FG VV002
BECMG 2712/2714 13010KT

Aviation Weather

 
Aerbrava en el facebook Aerbrava en el twitter Google+ Instagram Aerbrava en el youtube tumblr flikr pinterest

¡CSS Vàlid!